sensor_id;sensor_type;location;lat;lon;timestamp;P1;durP1;ratioP1;P2;durP2;ratioP2
4674;SDS011;2351;50.812;12.872;2022-09-12T00:02:23;20.00;;;11.33;;
4674;SDS011;2351;50.812;12.872;2022-09-12T00:04:55;22.97;;;12.10;;
4674;SDS011;2351;50.812;12.872;2022-09-12T00:07:26;21.23;;;11.80;;
4674;SDS011;2351;50.812;12.872;2022-09-12T00:09:59;19.20;;;11.10;;
4674;SDS011;2351;50.812;12.872;2022-09-12T00:12:31;23.03;;;10.97;;
4674;SDS011;2351;50.812;12.872;2022-09-12T00:15:03;20.37;;;12.27;;
4674;SDS011;2351;50.812;12.872;2022-09-12T00:17:37;22.60;;;12.60;;
4674;SDS011;2351;50.812;12.872;2022-09-12T00:20:09;19.03;;;11.17;;
4674;SDS011;2351;50.812;12.872;2022-09-12T00:22:41;18.60;;;10.00;;
4674;SDS011;2351;50.812;12.872;2022-09-12T00:25:14;19.20;;;11.40;;
4674;SDS011;2351;50.812;12.872;2022-09-12T00:27:46;19.13;;;11.40;;
4674;SDS011;2351;50.812;12.872;2022-09-12T00:30:17;23.30;;;12.03;;
4674;SDS011;2351;50.812;12.872;2022-09-12T00:32:49;22.70;;;10.33;;
4674;SDS011;2351;50.812;12.872;2022-09-12T00:35:20;15.20;;;10.07;;
4674;SDS011;2351;50.812;12.872;2022-09-12T00:37:52;16.67;;;9.63;;
4674;SDS011;2351;50.812;12.872;2022-09-12T00:40:25;22.97;;;12.33;;
4674;SDS011;2351;50.812;12.872;2022-09-12T00:42:57;19.03;;;11.40;;
4674;SDS011;2351;50.812;12.872;2022-09-12T00:45:29;19.73;;;11.93;;
4674;SDS011;2351;50.812;12.872;2022-09-12T00:48:01;23.20;;;12.27;;
4674;SDS011;2351;50.812;12.872;2022-09-12T00:50:34;18.40;;;11.30;;
4674;SDS011;2351;50.812;12.872;2022-09-12T00:53:06;19.80;;;11.67;;
4674;SDS011;2351;50.812;12.872;2022-09-12T00:55:40;22.63;;;13.10;;
4674;SDS011;2351;50.812;12.872;2022-09-12T00:58:18;21.23;;;11.73;;
4674;SDS011;2351;50.812;12.872;2022-09-12T01:00:53;22.87;;;14.47;;
4674;SDS011;2351;50.812;12.872;2022-09-12T01:03:24;17.20;;;11.20;;
4674;SDS011;2351;50.812;12.872;2022-09-12T01:05:58;20.00;;;10.97;;
4674;SDS011;2351;50.812;12.872;2022-09-12T01:08:36;15.23;;;9.37;;
4674;SDS011;2351;50.812;12.872;2022-09-12T01:11:11;19.00;;;10.10;;
4674;SDS011;2351;50.812;12.872;2022-09-12T01:13:44;18.10;;;10.67;;
4674;SDS011;2351;50.812;12.872;2022-09-12T01:16:16;19.63;;;12.00;;
4674;SDS011;2351;50.812;12.872;2022-09-12T01:18:50;19.60;;;10.77;;
4674;SDS011;2351;50.812;12.872;2022-09-12T01:21:32;16.70;;;10.37;;
4674;SDS011;2351;50.812;12.872;2022-09-12T01:27:32;17.27;;;9.93;;
4674;SDS011;2351;50.812;12.872;2022-09-12T01:30:18;18.33;;;10.00;;
4674;SDS011;2351;50.812;12.872;2022-09-12T01:32:55;20.87;;;10.00;;
4674;SDS011;2351;50.812;12.872;2022-09-12T01:35:38;19.10;;;10.43;;
4674;SDS011;2351;50.812;12.872;2022-09-12T01:38:21;15.67;;;9.73;;
4674;SDS011;2351;50.812;12.872;2022-09-12T01:40:59;19.13;;;10.27;;
4674;SDS011;2351;50.812;12.872;2022-09-12T01:43:40;16.77;;;10.40;;
4674;SDS011;2351;50.812;12.872;2022-09-12T01:46:20;21.93;;;13.00;;
4674;SDS011;2351;50.812;12.872;2022-09-12T01:48:59;18.50;;;10.57;;
4674;SDS011;2351;50.812;12.872;2022-09-12T01:51:38;22.40;;;10.97;;
4674;SDS011;2351;50.812;12.872;2022-09-12T01:54:15;22.20;;;10.80;;
4674;SDS011;2351;50.812;12.872;2022-09-12T01:56:52;18.80;;;9.03;;
4674;SDS011;2351;50.812;12.872;2022-09-12T01:59:29;16.87;;;10.10;;
4674;SDS011;2351;50.812;12.872;2022-09-12T02:02:06;20.63;;;11.63;;
4674;SDS011;2351;50.812;12.872;2022-09-12T02:04:43;21.43;;;11.07;;
4674;SDS011;2351;50.812;12.872;2022-09-12T02:07:21;17.10;;;10.13;;
4674;SDS011;2351;50.812;12.872;2022-09-12T02:09:58;20.40;;;10.67;;
4674;SDS011;2351;50.812;12.872;2022-09-12T02:12:37;18.70;;;10.60;;
4674;SDS011;2351;50.812;12.872;2022-09-12T02:15:14;17.37;;;10.27;;
4674;SDS011;2351;50.812;12.872;2022-09-12T02:17:50;17.57;;;10.10;;
4674;SDS011;2351;50.812;12.872;2022-09-12T02:20:26;24.33;;;11.53;;
4674;SDS011;2351;50.812;12.872;2022-09-12T02:23:00;20.87;;;11.10;;
4674;SDS011;2351;50.812;12.872;2022-09-12T02:25:35;19.53;;;10.90;;
4674;SDS011;2351;50.812;12.872;2022-09-12T02:28:12;18.53;;;9.90;;
4674;SDS011;2351;50.812;12.872;2022-09-12T02:30:49;22.83;;;11.60;;
4674;SDS011;2351;50.812;12.872;2022-09-12T02:33:29;22.83;;;11.40;;
4674;SDS011;2351;50.812;12.872;2022-09-12T02:36:09;18.10;;;10.67;;
4674;SDS011;2351;50.812;12.872;2022-09-12T02:38:46;17.77;;;10.70;;
4674;SDS011;2351;50.812;12.872;2022-09-12T02:41:19;25.70;;;12.97;;
4674;SDS011;2351;50.812;12.872;2022-09-12T02:43:51;19.07;;;11.50;;
4674;SDS011;2351;50.812;12.872;2022-09-12T02:46:24;28.83;;;13.30;;
4674;SDS011;2351;50.812;12.872;2022-09-12T02:49:03;24.43;;;12.73;;
4674;SDS011;2351;50.812;12.872;2022-09-12T02:51:35;25.00;;;12.37;;
4674;SDS011;2351;50.812;12.872;2022-09-12T02:54:07;20.90;;;11.27;;
4674;SDS011;2351;50.812;12.872;2022-09-12T02:56:41;22.20;;;12.30;;
4674;SDS011;2351;50.812;12.872;2022-09-12T02:59:15;31.43;;;13.30;;
4674;SDS011;2351;50.812;12.872;2022-09-12T03:01:59;20.67;;;11.57;;
4674;SDS011;2351;50.812;12.872;2022-09-12T03:04:44;19.87;;;11.43;;
4674;SDS011;2351;50.812;12.872;2022-09-12T03:07:27;29.00;;;11.67;;
4674;SDS011;2351;50.812;12.872;2022-09-12T03:10:09;23.53;;;13.37;;
4674;SDS011;2351;50.812;12.872;2022-09-12T03:12:56;21.87;;;10.83;;
4674;SDS011;2351;50.812;12.872;2022-09-12T03:15:40;27.43;;;11.70;;
4674;SDS011;2351;50.812;12.872;2022-09-12T03:18:22;27.00;;;12.47;;
4674;SDS011;2351;50.812;12.872;2022-09-12T03:21:07;31.70;;;13.50;;
4674;SDS011;2351;50.812;12.872;2022-09-12T03:23:43;25.37;;;13.40;;
4674;SDS011;2351;50.812;12.872;2022-09-12T03:26:24;24.17;;;12.10;;
4674;SDS011;2351;50.812;12.872;2022-09-12T03:28:59;25.73;;;12.17;;
4674;SDS011;2351;50.812;12.872;2022-09-12T03:31:34;24.00;;;12.33;;
4674;SDS011;2351;50.812;12.872;2022-09-12T03:34:06;20.00;;;11.00;;
4674;SDS011;2351;50.812;12.872;2022-09-12T03:36:43;23.10;;;11.60;;
4674;SDS011;2351;50.812;12.872;2022-09-12T03:39:15;23.70;;;13.57;;
4674;SDS011;2351;50.812;12.872;2022-09-12T03:41:47;22.33;;;12.57;;
4674;SDS011;2351;50.812;12.872;2022-09-12T03:44:18;28.93;;;14.43;;
4674;SDS011;2351;50.812;12.872;2022-09-12T03:46:50;23.90;;;12.83;;
4674;SDS011;2351;50.812;12.872;2022-09-12T03:49:22;26.73;;;13.30;;
4674;SDS011;2351;50.812;12.872;2022-09-12T03:51:55;26.80;;;13.53;;
4674;SDS011;2351;50.812;12.872;2022-09-12T03:54:26;25.30;;;13.50;;
4674;SDS011;2351;50.812;12.872;2022-09-12T03:56:58;28.50;;;13.60;;
4674;SDS011;2351;50.812;12.872;2022-09-12T03:59:29;27.63;;;13.60;;
4674;SDS011;2351;50.812;12.872;2022-09-12T04:02:01;30.27;;;13.63;;
4674;SDS011;2351;50.812;12.872;2022-09-12T04:04:33;26.60;;;13.00;;
4674;SDS011;2351;50.812;12.872;2022-09-12T04:07:06;25.00;;;13.53;;
4674;SDS011;2351;50.812;12.872;2022-09-12T04:09:38;23.63;;;12.93;;
4674;SDS011;2351;50.812;12.872;2022-09-12T04:12:10;27.70;;;13.57;;
4674;SDS011;2351;50.812;12.872;2022-09-12T04:14:43;24.97;;;12.60;;
4674;SDS011;2351;50.812;12.872;2022-09-12T04:17:14;26.67;;;12.70;;
4674;SDS011;2351;50.812;12.872;2022-09-12T04:19:46;25.27;;;12.73;;
4674;SDS011;2351;50.812;12.872;2022-09-12T04:22:19;28.17;;;14.00;;
4674;SDS011;2351;50.812;12.872;2022-09-12T04:24:50;23.07;;;12.07;;
4674;SDS011;2351;50.812;12.872;2022-09-12T04:27:22;23.07;;;12.07;;
4674;SDS011;2351;50.812;12.872;2022-09-12T04:29:54;19.10;;;10.57;;
4674;SDS011;2351;50.812;12.872;2022-09-12T04:32:26;22.63;;;12.20;;
4674;SDS011;2351;50.812;12.872;2022-09-12T04:34:59;26.57;;;13.40;;
4674;SDS011;2351;50.812;12.872;2022-09-12T04:37:32;24.20;;;12.93;;
4674;SDS011;2351;50.812;12.872;2022-09-12T04:42:37;28.07;;;13.47;;
4674;SDS011;2351;50.812;12.872;2022-09-12T04:45:08;25.93;;;12.20;;
4674;SDS011;2351;50.812;12.872;2022-09-12T04:47:42;24.57;;;12.47;;
4674;SDS011;2351;50.812;12.872;2022-09-12T04:50:15;31.47;;;13.17;;
4674;SDS011;2351;50.812;12.872;2022-09-12T04:52:49;24.53;;;12.97;;
4674;SDS011;2351;50.812;12.872;2022-09-12T04:55:21;20.93;;;11.93;;
4674;SDS011;2351;50.812;12.872;2022-09-12T04:57:54;21.43;;;11.40;;
4674;SDS011;2351;50.812;12.872;2022-09-12T05:00:25;25.50;;;11.63;;
4674;SDS011;2351;50.812;12.872;2022-09-12T05:02:58;21.70;;;11.93;;
4674;SDS011;2351;50.812;12.872;2022-09-12T05:05:29;22.23;;;10.90;;
4674;SDS011;2351;50.812;12.872;2022-09-12T05:08:02;20.10;;;10.40;;
4674;SDS011;2351;50.812;12.872;2022-09-12T05:10:34;30.47;;;13.90;;
4674;SDS011;2351;50.812;12.872;2022-09-12T05:13:05;26.57;;;13.50;;
4674;SDS011;2351;50.812;12.872;2022-09-12T05:15:38;24.43;;;13.23;;
4674;SDS011;2351;50.812;12.872;2022-09-12T05:18:10;24.70;;;12.40;;
4674;SDS011;2351;50.812;12.872;2022-09-12T05:20:41;27.40;;;14.07;;
4674;SDS011;2351;50.812;12.872;2022-09-12T05:23:14;25.07;;;12.07;;
4674;SDS011;2351;50.812;12.872;2022-09-12T05:25:48;32.00;;;13.20;;
4674;SDS011;2351;50.812;12.872;2022-09-12T05:28:21;20.53;;;11.33;;
4674;SDS011;2351;50.812;12.872;2022-09-12T05:30:58;27.93;;;13.13;;
4674;SDS011;2351;50.812;12.872;2022-09-12T05:33:31;26.40;;;12.33;;
4674;SDS011;2351;50.812;12.872;2022-09-12T05:36:04;27.50;;;13.40;;
4674;SDS011;2351;50.812;12.872;2022-09-12T05:38:39;26.37;;;13.83;;
4674;SDS011;2351;50.812;12.872;2022-09-12T05:41:11;24.93;;;13.07;;
4674;SDS011;2351;50.812;12.872;2022-09-12T05:43:44;29.53;;;14.03;;
4674;SDS011;2351;50.812;12.872;2022-09-12T05:46:17;27.80;;;14.07;;
4674;SDS011;2351;50.812;12.872;2022-09-12T05:48:50;27.97;;;14.60;;
4674;SDS011;2351;50.812;12.872;2022-09-12T05:51:24;26.53;;;13.43;;
4674;SDS011;2351;50.812;12.872;2022-09-12T05:53:59;32.07;;;16.30;;
4674;SDS011;2351;50.812;12.872;2022-09-12T05:56:33;38.63;;;16.43;;
4674;SDS011;2351;50.812;12.872;2022-09-12T05:59:09;38.70;;;18.60;;
4674;SDS011;2351;50.812;12.872;2022-09-12T06:01:43;39.20;;;18.87;;
4674;SDS011;2351;50.812;12.872;2022-09-12T06:04:15;34.73;;;16.13;;
4674;SDS011;2351;50.812;12.872;2022-09-12T06:06:47;28.43;;;13.30;;
4674;SDS011;2351;50.812;12.872;2022-09-12T06:09:20;29.73;;;14.40;;
4674;SDS011;2351;50.812;12.872;2022-09-12T06:11:54;30.00;;;14.80;;
4674;SDS011;2351;50.812;12.872;2022-09-12T06:14:25;24.23;;;12.67;;
4674;SDS011;2351;50.812;12.872;2022-09-12T06:16:57;27.50;;;14.80;;
4674;SDS011;2351;50.812;12.872;2022-09-12T06:19:29;32.63;;;14.97;;
4674;SDS011;2351;50.812;12.872;2022-09-12T06:22:00;28.07;;;14.70;;
4674;SDS011;2351;50.812;12.872;2022-09-12T06:24:33;31.20;;;16.00;;
4674;SDS011;2351;50.812;12.872;2022-09-12T06:27:05;35.73;;;15.03;;
4674;SDS011;2351;50.812;12.872;2022-09-12T06:29:36;33.03;;;13.90;;
4674;SDS011;2351;50.812;12.872;2022-09-12T06:32:08;41.87;;;15.23;;
4674;SDS011;2351;50.812;12.872;2022-09-12T06:34:40;30.50;;;16.53;;
4674;SDS011;2351;50.812;12.872;2022-09-12T06:37:12;34.50;;;15.93;;
4674;SDS011;2351;50.812;12.872;2022-09-12T06:39:45;33.97;;;16.67;;
4674;SDS011;2351;50.812;12.872;2022-09-12T06:42:17;31.80;;;15.07;;
4674;SDS011;2351;50.812;12.872;2022-09-12T06:44:49;29.07;;;14.50;;
4674;SDS011;2351;50.812;12.872;2022-09-12T06:47:21;31.17;;;15.20;;
4674;SDS011;2351;50.812;12.872;2022-09-12T06:49:52;47.77;;;16.40;;
4674;SDS011;2351;50.812;12.872;2022-09-12T06:52:24;25.53;;;14.07;;
4674;SDS011;2351;50.812;12.872;2022-09-12T06:54:57;37.57;;;15.67;;
4674;SDS011;2351;50.812;12.872;2022-09-12T06:57:28;32.97;;;15.63;;
4674;SDS011;2351;50.812;12.872;2022-09-12T07:00:00;27.43;;;14.80;;
4674;SDS011;2351;50.812;12.872;2022-09-12T07:02:33;31.47;;;15.70;;
4674;SDS011;2351;50.812;12.872;2022-09-12T07:05:05;32.10;;;13.70;;
4674;SDS011;2351;50.812;12.872;2022-09-12T07:07:37;29.93;;;14.40;;
4674;SDS011;2351;50.812;12.872;2022-09-12T07:10:10;32.47;;;15.57;;
4674;SDS011;2351;50.812;12.872;2022-09-12T07:12:42;38.27;;;13.83;;
4674;SDS011;2351;50.812;12.872;2022-09-12T07:15:13;26.80;;;14.83;;
4674;SDS011;2351;50.812;12.872;2022-09-12T07:17:45;31.60;;;15.23;;
4674;SDS011;2351;50.812;12.872;2022-09-12T07:20:16;32.00;;;13.67;;
4674;SDS011;2351;50.812;12.872;2022-09-12T07:22:49;25.97;;;14.20;;
4674;SDS011;2351;50.812;12.872;2022-09-12T07:25:22;25.50;;;13.70;;
4674;SDS011;2351;50.812;12.872;2022-09-12T07:27:54;38.60;;;15.80;;
4674;SDS011;2351;50.812;12.872;2022-09-12T07:30:25;29.80;;;14.57;;
4674;SDS011;2351;50.812;12.872;2022-09-12T07:32:57;33.10;;;14.53;;
4674;SDS011;2351;50.812;12.872;2022-09-12T07:35:30;33.37;;;16.70;;
4674;SDS011;2351;50.812;12.872;2022-09-12T07:38:03;25.60;;;13.30;;
4674;SDS011;2351;50.812;12.872;2022-09-12T07:40:35;32.60;;;15.63;;
4674;SDS011;2351;50.812;12.872;2022-09-12T07:43:07;36.67;;;16.47;;
4674;SDS011;2351;50.812;12.872;2022-09-12T07:45:38;27.87;;;14.13;;
4674;SDS011;2351;50.812;12.872;2022-09-12T07:48:11;32.40;;;14.87;;
4674;SDS011;2351;50.812;12.872;2022-09-12T07:50:43;31.90;;;14.40;;
4674;SDS011;2351;50.812;12.872;2022-09-12T07:53:15;35.33;;;15.27;;
4674;SDS011;2351;50.812;12.872;2022-09-12T07:55:53;30.83;;;14.80;;
4674;SDS011;2351;50.812;12.872;2022-09-12T07:58:26;29.00;;;13.97;;
4674;SDS011;2351;50.812;12.872;2022-09-12T08:01:01;28.43;;;14.13;;
4674;SDS011;2351;50.812;12.872;2022-09-12T08:03:33;24.03;;;12.50;;
4674;SDS011;2351;50.812;12.872;2022-09-12T08:06:05;20.60;;;11.43;;
4674;SDS011;2351;50.812;12.872;2022-09-12T08:08:39;25.80;;;12.90;;
4674;SDS011;2351;50.812;12.872;2022-09-12T08:11:13;25.63;;;14.33;;
4674;SDS011;2351;50.812;12.872;2022-09-12T08:13:45;23.47;;;13.97;;
4674;SDS011;2351;50.812;12.872;2022-09-12T08:16:18;24.07;;;13.57;;
4674;SDS011;2351;50.812;12.872;2022-09-12T08:18:51;21.07;;;11.50;;
4674;SDS011;2351;50.812;12.872;2022-09-12T08:21:23;25.67;;;12.30;;
4674;SDS011;2351;50.812;12.872;2022-09-12T08:23:56;23.40;;;12.50;;
4674;SDS011;2351;50.812;12.872;2022-09-12T08:26:31;25.07;;;12.03;;
4674;SDS011;2351;50.812;12.872;2022-09-12T08:29:03;22.27;;;10.57;;
4674;SDS011;2351;50.812;12.872;2022-09-12T08:31:35;14.03;;;8.87;;
4674;SDS011;2351;50.812;12.872;2022-09-12T08:34:06;17.60;;;9.10;;
4674;SDS011;2351;50.812;12.872;2022-09-12T08:36:38;15.10;;;9.60;;
4674;SDS011;2351;50.812;12.872;2022-09-12T08:39:10;19.13;;;9.67;;
4674;SDS011;2351;50.812;12.872;2022-09-12T08:41:45;13.27;;;8.00;;
4674;SDS011;2351;50.812;12.872;2022-09-12T08:44:20;12.17;;;7.33;;
4674;SDS011;2351;50.812;12.872;2022-09-12T08:47:06;14.20;;;7.33;;
4674;SDS011;2351;50.812;12.872;2022-09-12T08:49:47;10.43;;;5.20;;
4674;SDS011;2351;50.812;12.872;2022-09-12T08:52:26;13.03;;;7.70;;
4674;SDS011;2351;50.812;12.872;2022-09-12T08:55:05;13.13;;;8.60;;
4674;SDS011;2351;50.812;12.872;2022-09-12T08:57:48;16.20;;;10.07;;
4674;SDS011;2351;50.812;12.872;2022-09-12T09:00:21;16.50;;;9.80;;
4674;SDS011;2351;50.812;12.872;2022-09-12T09:03:03;17.40;;;9.67;;
4674;SDS011;2351;50.812;12.872;2022-09-12T09:05:51;13.37;;;8.20;;
4674;SDS011;2351;50.812;12.872;2022-09-12T09:08:35;15.20;;;8.33;;
4674;SDS011;2351;50.812;12.872;2022-09-12T09:11:27;16.83;;;9.43;;
4674;SDS011;2351;50.812;12.872;2022-09-12T09:14:13;15.73;;;8.43;;
4674;SDS011;2351;50.812;12.872;2022-09-12T09:17:14;11.30;;;7.60;;
4674;SDS011;2351;50.812;12.872;2022-09-12T09:19:52;10.00;;;7.30;;
4674;SDS011;2351;50.812;12.872;2022-09-12T09:22:33;8.10;;;6.47;;
4674;SDS011;2351;50.812;12.872;2022-09-12T09:25:12;11.10;;;7.30;;
4674;SDS011;2351;50.812;12.872;2022-09-12T09:27:52;11.73;;;6.53;;
4674;SDS011;2351;50.812;12.872;2022-09-12T09:30:29;10.40;;;5.80;;
4674;SDS011;2351;50.812;12.872;2022-09-12T09:33:02;8.80;;;5.23;;
4674;SDS011;2351;50.812;12.872;2022-09-12T09:35:37;9.13;;;5.33;;
4674;SDS011;2351;50.812;12.872;2022-09-12T09:38:21;8.73;;;5.43;;
4674;SDS011;2351;50.812;12.872;2022-09-12T09:40:58;6.33;;;4.97;;
4674;SDS011;2351;50.812;12.872;2022-09-12T09:43:35;9.30;;;5.13;;
4674;SDS011;2351;50.812;12.872;2022-09-12T09:46:09;6.93;;;4.87;;
4674;SDS011;2351;50.812;12.872;2022-09-12T09:48:43;11.00;;;5.60;;
4674;SDS011;2351;50.812;12.872;2022-09-12T09:51:18;10.43;;;5.20;;
4674;SDS011;2351;50.812;12.872;2022-09-12T09:53:57;6.50;;;4.70;;
4674;SDS011;2351;50.812;12.872;2022-09-12T09:56:32;6.00;;;4.50;;
4674;SDS011;2351;50.812;12.872;2022-09-12T09:59:08;6.30;;;4.83;;
4674;SDS011;2351;50.812;12.872;2022-09-12T10:01:48;6.73;;;5.10;;
4674;SDS011;2351;50.812;12.872;2022-09-12T10:04:24;8.13;;;5.57;;
4674;SDS011;2351;50.812;12.872;2022-09-12T10:06:58;7.40;;;5.60;;
4674;SDS011;2351;50.812;12.872;2022-09-12T10:09:31;7.67;;;5.30;;
4674;SDS011;2351;50.812;12.872;2022-09-12T10:12:18;9.73;;;5.00;;
4674;SDS011;2351;50.812;12.872;2022-09-12T10:14:55;8.50;;;5.33;;
4674;SDS011;2351;50.812;12.872;2022-09-12T10:17:29;8.00;;;5.07;;
4674;SDS011;2351;50.812;12.872;2022-09-12T10:23:04;7.63;;;4.97;;
4674;SDS011;2351;50.812;12.872;2022-09-12T10:25:54;7.77;;;5.23;;
4674;SDS011;2351;50.812;12.872;2022-09-12T10:28:31;5.10;;;4.43;;
4674;SDS011;2351;50.812;12.872;2022-09-12T10:31:06;6.47;;;4.20;;
4674;SDS011;2351;50.812;12.872;2022-09-12T10:33:42;8.13;;;4.50;;
4674;SDS011;2351;50.812;12.872;2022-09-12T10:36:21;11.70;;;4.47;;
4674;SDS011;2351;50.812;12.872;2022-09-12T10:38:55;5.90;;;4.60;;
4674;SDS011;2351;50.812;12.872;2022-09-12T10:41:34;4.53;;;3.73;;
4674;SDS011;2351;50.812;12.872;2022-09-12T10:44:09;7.00;;;4.83;;
4674;SDS011;2351;50.812;12.872;2022-09-12T10:46:45;7.83;;;5.17;;
4674;SDS011;2351;50.812;12.872;2022-09-12T10:49:25;6.00;;;4.73;;
4674;SDS011;2351;50.812;12.872;2022-09-12T10:52:15;4.27;;;3.70;;
4674;SDS011;2351;50.812;12.872;2022-09-12T10:54:48;5.37;;;4.33;;
4674;SDS011;2351;50.812;12.872;2022-09-12T10:57:23;5.37;;;4.50;;
4674;SDS011;2351;50.812;12.872;2022-09-12T11:00:13;4.50;;;3.83;;
4674;SDS011;2351;50.812;12.872;2022-09-12T11:02:49;5.40;;;4.10;;
4674;SDS011;2351;50.812;12.872;2022-09-12T11:05:34;3.67;;;3.37;;
4674;SDS011;2351;50.812;12.872;2022-09-12T11:08:19;5.97;;;4.10;;
4674;SDS011;2351;50.812;12.872;2022-09-12T11:11:03;9.30;;;4.07;;
4674;SDS011;2351;50.812;12.872;2022-09-12T11:13:46;5.00;;;4.10;;
4674;SDS011;2351;50.812;12.872;2022-09-12T11:16:30;7.20;;;4.30;;
4674;SDS011;2351;50.812;12.872;2022-09-12T11:19:16;4.80;;;3.73;;
4674;SDS011;2351;50.812;12.872;2022-09-12T11:22:12;4.03;;;3.63;;
4674;SDS011;2351;50.812;12.872;2022-09-12T11:25:04;6.03;;;3.93;;
4674;SDS011;2351;50.812;12.872;2022-09-12T11:27:46;8.13;;;3.60;;
4674;SDS011;2351;50.812;12.872;2022-09-12T11:30:26;5.27;;;4.13;;
4674;SDS011;2351;50.812;12.872;2022-09-12T11:33:13;6.43;;;4.63;;
4674;SDS011;2351;50.812;12.872;2022-09-12T11:35:57;6.70;;;4.40;;
4674;SDS011;2351;50.812;12.872;2022-09-12T11:38:46;5.20;;;3.87;;
4674;SDS011;2351;50.812;12.872;2022-09-12T11:41:22;3.57;;;3.03;;
4674;SDS011;2351;50.812;12.872;2022-09-12T11:43:59;3.80;;;3.43;;
4674;SDS011;2351;50.812;12.872;2022-09-12T11:46:35;4.73;;;3.43;;
4674;SDS011;2351;50.812;12.872;2022-09-12T11:49:16;4.43;;;3.17;;
4674;SDS011;2351;50.812;12.872;2022-09-12T11:51:54;11.83;;;3.70;;
4674;SDS011;2351;50.812;12.872;2022-09-12T11:54:31;4.07;;;3.67;;
4674;SDS011;2351;50.812;12.872;2022-09-12T11:57:09;4.70;;;3.30;;
4674;SDS011;2351;50.812;12.872;2022-09-12T11:59:47;3.47;;;3.00;;
4674;SDS011;2351;50.812;12.872;2022-09-12T12:02:25;6.00;;;3.97;;
4674;SDS011;2351;50.812;12.872;2022-09-12T12:05:03;6.27;;;4.10;;
4674;SDS011;2351;50.812;12.872;2022-09-12T12:07:48;3.93;;;3.60;;
4674;SDS011;2351;50.812;12.872;2022-09-12T12:10:26;4.10;;;3.70;;
4674;SDS011;2351;50.812;12.872;2022-09-12T12:13:05;3.63;;;3.33;;
4674;SDS011;2351;50.812;12.872;2022-09-12T12:15:38;4.50;;;3.83;;
4674;SDS011;2351;50.812;12.872;2022-09-12T12:18:15;5.90;;;4.20;;
4674;SDS011;2351;50.812;12.872;2022-09-12T12:20:49;3.53;;;3.23;;
4674;SDS011;2351;50.812;12.872;2022-09-12T12:23:25;5.97;;;3.90;;
4674;SDS011;2351;50.812;12.872;2022-09-12T12:26:00;3.60;;;3.00;;
4674;SDS011;2351;50.812;12.872;2022-09-12T12:31:30;4.80;;;3.60;;
4674;SDS011;2351;50.812;12.872;2022-09-12T12:34:03;4.57;;;3.50;;
4674;SDS011;2351;50.812;12.872;2022-09-12T12:36:50;3.13;;;2.87;;
4674;SDS011;2351;50.812;12.872;2022-09-12T12:45:48;3.33;;;3.00;;
4674;SDS011;2351;50.812;12.872;2022-09-12T12:51:47;2.90;;;2.70;;
4674;SDS011;2351;50.812;12.872;2022-09-12T12:54:30;2.70;;;2.50;;
4674;SDS011;2351;50.812;12.872;2022-09-12T12:57:14;3.10;;;2.80;;
4674;SDS011;2351;50.812;12.872;2022-09-12T12:59:51;3.20;;;2.90;;
4674;SDS011;2351;50.812;12.872;2022-09-12T13:02:26;4.33;;;3.30;;
4674;SDS011;2351;50.812;12.872;2022-09-12T13:05:02;3.73;;;2.93;;
4674;SDS011;2351;50.812;12.872;2022-09-12T13:07:37;3.37;;;3.07;;
4674;SDS011;2351;50.812;12.872;2022-09-12T13:10:18;3.30;;;2.90;;
4674;SDS011;2351;50.812;12.872;2022-09-12T13:12:52;2.80;;;2.60;;
4674;SDS011;2351;50.812;12.872;2022-09-12T13:15:45;3.30;;;3.00;;
4674;SDS011;2351;50.812;12.872;2022-09-12T13:18:23;3.60;;;3.10;;
4674;SDS011;2351;50.812;12.872;2022-09-12T13:21:03;2.70;;;2.50;;
4674;SDS011;2351;50.812;12.872;2022-09-12T13:23:39;4.30;;;2.40;;
4674;SDS011;2351;50.812;12.872;2022-09-12T13:26:12;3.40;;;3.10;;
4674;SDS011;2351;50.812;12.872;2022-09-12T13:31:43;4.00;;;3.40;;
4674;SDS011;2351;50.812;12.872;2022-09-12T13:34:17;3.30;;;3.00;;
4674;SDS011;2351;50.812;12.872;2022-09-12T13:37:10;3.97;;;3.57;;
4674;SDS011;2351;50.812;12.872;2022-09-12T13:39:56;3.40;;;2.90;;
4674;SDS011;2351;50.812;12.872;2022-09-12T13:42:40;3.23;;;2.93;;
4674;SDS011;2351;50.812;12.872;2022-09-12T13:45:14;3.23;;;2.93;;
4674;SDS011;2351;50.812;12.872;2022-09-12T13:47:52;3.93;;;3.50;;
4674;SDS011;2351;50.812;12.872;2022-09-12T13:50:27;6.20;;;2.70;;
4674;SDS011;2351;50.812;12.872;2022-09-12T13:53:03;4.10;;;3.70;;
4674;SDS011;2351;50.812;12.872;2022-09-12T13:55:37;3.40;;;3.10;;
4674;SDS011;2351;50.812;12.872;2022-09-12T13:58:15;5.47;;;4.07;;
4674;SDS011;2351;50.812;12.872;2022-09-12T14:00:59;3.73;;;3.27;;
4674;SDS011;2351;50.812;12.872;2022-09-12T14:03:38;3.40;;;3.10;;
4674;SDS011;2351;50.812;12.872;2022-09-12T14:06:33;3.50;;;3.20;;
4674;SDS011;2351;50.812;12.872;2022-09-12T14:09:10;4.00;;;3.60;;
4674;SDS011;2351;50.812;12.872;2022-09-12T14:11:43;4.03;;;3.43;;
4674;SDS011;2351;50.812;12.872;2022-09-12T14:14:16;3.47;;;3.20;;
4674;SDS011;2351;50.812;12.872;2022-09-12T14:16:56;3.73;;;3.00;;
4674;SDS011;2351;50.812;12.872;2022-09-12T14:19:30;3.80;;;3.10;;
4674;SDS011;2351;50.812;12.872;2022-09-12T14:22:03;4.90;;;4.00;;
4674;SDS011;2351;50.812;12.872;2022-09-12T14:24:35;3.30;;;3.00;;
4674;SDS011;2351;50.812;12.872;2022-09-12T14:27:08;4.00;;;3.53;;
4674;SDS011;2351;50.812;12.872;2022-09-12T14:29:40;4.07;;;3.40;;
4674;SDS011;2351;50.812;12.872;2022-09-12T14:32:17;3.50;;;3.20;;
4674;SDS011;2351;50.812;12.872;2022-09-12T14:35:12;3.93;;;3.17;;
4674;SDS011;2351;50.812;12.872;2022-09-12T14:37:49;5.43;;;3.27;;
4674;SDS011;2351;50.812;12.872;2022-09-12T14:40:22;4.10;;;3.70;;
4674;SDS011;2351;50.812;12.872;2022-09-12T14:42:53;3.93;;;3.50;;
4674;SDS011;2351;50.812;12.872;2022-09-12T14:45:26;8.10;;;3.73;;
4674;SDS011;2351;50.812;12.872;2022-09-12T14:48:00;3.40;;;3.10;;
4674;SDS011;2351;50.812;12.872;2022-09-12T14:50:33;4.00;;;3.13;;
4674;SDS011;2351;50.812;12.872;2022-09-12T14:53:07;4.50;;;3.60;;
4674;SDS011;2351;50.812;12.872;2022-09-12T14:55:56;5.50;;;3.33;;
4674;SDS011;2351;50.812;12.872;2022-09-12T14:58:29;3.57;;;3.00;;
4674;SDS011;2351;50.812;12.872;2022-09-12T15:01:01;4.07;;;3.20;;
4674;SDS011;2351;50.812;12.872;2022-09-12T15:03:51;3.57;;;3.27;;
4674;SDS011;2351;50.812;12.872;2022-09-12T15:06:28;5.13;;;3.30;;
4674;SDS011;2351;50.812;12.872;2022-09-12T15:09:02;3.73;;;3.07;;
4674;SDS011;2351;50.812;12.872;2022-09-12T15:11:36;3.70;;;3.40;;
4674;SDS011;2351;50.812;12.872;2022-09-12T15:14:08;3.90;;;3.47;;
4674;SDS011;2351;50.812;12.872;2022-09-12T15:16:42;3.77;;;3.20;;
4674;SDS011;2351;50.812;12.872;2022-09-12T15:19:14;4.10;;;3.43;;
4674;SDS011;2351;50.812;12.872;2022-09-12T15:21:47;4.17;;;3.40;;
4674;SDS011;2351;50.812;12.872;2022-09-12T15:24:18;3.53;;;3.23;;
4674;SDS011;2351;50.812;12.872;2022-09-12T15:26:51;4.67;;;3.60;;
4674;SDS011;2351;50.812;12.872;2022-09-12T15:29:23;4.33;;;3.27;;
4674;SDS011;2351;50.812;12.872;2022-09-12T15:31:54;3.60;;;3.30;;
4674;SDS011;2351;50.812;12.872;2022-09-12T15:34:27;3.60;;;3.30;;
4674;SDS011;2351;50.812;12.872;2022-09-12T15:36:59;4.03;;;3.67;;
4674;SDS011;2351;50.812;12.872;2022-09-12T15:39:31;3.63;;;3.20;;
4674;SDS011;2351;50.812;12.872;2022-09-12T15:42:03;3.50;;;3.20;;
4674;SDS011;2351;50.812;12.872;2022-09-12T15:44:34;3.40;;;3.10;;
4674;SDS011;2351;50.812;12.872;2022-09-12T15:47:07;5.37;;;3.33;;
4674;SDS011;2351;50.812;12.872;2022-09-12T15:49:41;3.57;;;2.77;;
4674;SDS011;2351;50.812;12.872;2022-09-12T15:52:14;5.83;;;3.00;;
4674;SDS011;2351;50.812;12.872;2022-09-12T15:54:46;3.87;;;2.80;;
4674;SDS011;2351;50.812;12.872;2022-09-12T15:57:18;3.50;;;3.20;;
4674;SDS011;2351;50.812;12.872;2022-09-12T15:59:50;4.17;;;3.33;;
4674;SDS011;2351;50.812;12.872;2022-09-12T16:02:22;3.77;;;3.00;;